sensor_id;sensor_type;location;lat;lon;timestamp;P1;durP1;ratioP1;P2;durP2;ratioP2
75589;SDS011;64169;47.240;11.312;2023-04-25T00:00:21;4.68;;;1.55;;
75589;SDS011;64169;47.240;11.312;2023-04-25T00:02:47;4.63;;;1.40;;
75589;SDS011;64169;47.240;11.312;2023-04-25T00:05:12;3.38;;;1.23;;
75589;SDS011;64169;47.240;11.312;2023-04-25T00:07:40;4.70;;;1.83;;
75589;SDS011;64169;47.240;11.312;2023-04-25T00:10:07;4.10;;;1.52;;
75589;SDS011;64169;47.240;11.312;2023-04-25T00:12:33;6.35;;;1.77;;
75589;SDS011;64169;47.240;11.312;2023-04-25T00:14:59;4.95;;;1.80;;
75589;SDS011;64169;47.240;11.312;2023-04-25T00:17:25;3.88;;;1.38;;
75589;SDS011;64169;47.240;11.312;2023-04-25T00:19:51;5.45;;;1.48;;
75589;SDS011;64169;47.240;11.312;2023-04-25T00:22:17;4.43;;;1.67;;
75589;SDS011;64169;47.240;11.312;2023-04-25T00:24:43;3.88;;;1.60;;
75589;SDS011;64169;47.240;11.312;2023-04-25T00:27:08;3.75;;;1.30;;
75589;SDS011;64169;47.240;11.312;2023-04-25T00:29:33;4.25;;;1.52;;
75589;SDS011;64169;47.240;11.312;2023-04-25T00:31:59;3.97;;;1.40;;
75589;SDS011;64169;47.240;11.312;2023-04-25T00:34:25;5.78;;;1.52;;
75589;SDS011;64169;47.240;11.312;2023-04-25T00:36:50;5.05;;;1.75;;
75589;SDS011;64169;47.240;11.312;2023-04-25T00:39:16;4.93;;;1.63;;
75589;SDS011;64169;47.240;11.312;2023-04-25T00:41:41;4.72;;;1.70;;
75589;SDS011;64169;47.240;11.312;2023-04-25T00:44:08;5.63;;;1.75;;
75589;SDS011;64169;47.240;11.312;2023-04-25T00:46:36;4.95;;;1.48;;
75589;SDS011;64169;47.240;11.312;2023-04-25T00:49:01;4.45;;;1.50;;
75589;SDS011;64169;47.240;11.312;2023-04-25T00:51:27;4.45;;;1.52;;
75589;SDS011;64169;47.240;11.312;2023-04-25T00:53:52;4.45;;;1.73;;
75589;SDS011;64169;47.240;11.312;2023-04-25T00:56:18;4.05;;;1.38;;
75589;SDS011;64169;47.240;11.312;2023-04-25T00:58:44;6.35;;;1.80;;
75589;SDS011;64169;47.240;11.312;2023-04-25T01:01:10;4.40;;;1.73;;
75589;SDS011;64169;47.240;11.312;2023-04-25T01:03:37;4.60;;;1.58;;
75589;SDS011;64169;47.240;11.312;2023-04-25T01:06:09;5.47;;;1.52;;
75589;SDS011;64169;47.240;11.312;2023-04-25T01:08:36;5.00;;;1.75;;
75589;SDS011;64169;47.240;11.312;2023-04-25T01:11:02;4.55;;;1.67;;
75589;SDS011;64169;47.240;11.312;2023-04-25T01:13:28;3.90;;;1.40;;
75589;SDS011;64169;47.240;11.312;2023-04-25T01:15:53;4.05;;;1.25;;
75589;SDS011;64169;47.240;11.312;2023-04-25T01:18:19;4.63;;;1.35;;
75589;SDS011;64169;47.240;11.312;2023-04-25T01:20:45;4.50;;;1.58;;
75589;SDS011;64169;47.240;11.312;2023-04-25T01:23:12;4.80;;;1.58;;
75589;SDS011;64169;47.240;11.312;2023-04-25T01:25:38;3.92;;;1.60;;
75589;SDS011;64169;47.240;11.312;2023-04-25T01:28:04;4.70;;;1.83;;
75589;SDS011;64169;47.240;11.312;2023-04-25T01:30:30;4.88;;;1.85;;
75589;SDS011;64169;47.240;11.312;2023-04-25T01:32:55;4.70;;;1.70;;
75589;SDS011;64169;47.240;11.312;2023-04-25T01:35:21;4.40;;;1.58;;
75589;SDS011;64169;47.240;11.312;2023-04-25T01:37:49;4.68;;;1.75;;
75589;SDS011;64169;47.240;11.312;2023-04-25T01:40:14;4.80;;;1.80;;
75589;SDS011;64169;47.240;11.312;2023-04-25T01:42:41;6.38;;;2.55;;
75589;SDS011;64169;47.240;11.312;2023-04-25T01:45:08;4.63;;;1.90;;
75589;SDS011;64169;47.240;11.312;2023-04-25T01:47:35;5.47;;;2.00;;
75589;SDS011;64169;47.240;11.312;2023-04-25T01:50:02;4.28;;;1.65;;
75589;SDS011;64169;47.240;11.312;2023-04-25T01:52:28;8.02;;;2.28;;
75589;SDS011;64169;47.240;11.312;2023-04-25T01:54:53;5.35;;;1.98;;
75589;SDS011;64169;47.240;11.312;2023-04-25T01:57:19;5.03;;;1.75;;
75589;SDS011;64169;47.240;11.312;2023-04-25T01:59:45;7.43;;;2.25;;
75589;SDS011;64169;47.240;11.312;2023-04-25T02:02:11;6.80;;;1.83;;
75589;SDS011;64169;47.240;11.312;2023-04-25T02:04:36;7.13;;;2.15;;
75589;SDS011;64169;47.240;11.312;2023-04-25T02:07:01;6.45;;;2.22;;
75589;SDS011;64169;47.240;11.312;2023-04-25T02:09:27;6.20;;;2.20;;
75589;SDS011;64169;47.240;11.312;2023-04-25T02:11:52;6.05;;;2.00;;
75589;SDS011;64169;47.240;11.312;2023-04-25T02:14:18;5.38;;;1.90;;
75589;SDS011;64169;47.240;11.312;2023-04-25T02:16:43;5.28;;;2.20;;
75589;SDS011;64169;47.240;11.312;2023-04-25T02:19:10;4.65;;;1.70;;
75589;SDS011;64169;47.240;11.312;2023-04-25T02:21:36;5.50;;;2.00;;
75589;SDS011;64169;47.240;11.312;2023-04-25T02:24:02;6.80;;;2.17;;
75589;SDS011;64169;47.240;11.312;2023-04-25T02:26:28;5.15;;;2.08;;
75589;SDS011;64169;47.240;11.312;2023-04-25T02:28:53;5.82;;;2.00;;
75589;SDS011;64169;47.240;11.312;2023-04-25T02:31:19;5.95;;;2.30;;
75589;SDS011;64169;47.240;11.312;2023-04-25T02:33:44;5.90;;;2.63;;
75589;SDS011;64169;47.240;11.312;2023-04-25T02:36:10;6.85;;;2.40;;
75589;SDS011;64169;47.240;11.312;2023-04-25T02:38:35;5.28;;;1.95;;
75589;SDS011;64169;47.240;11.312;2023-04-25T02:41:01;5.07;;;1.73;;
75589;SDS011;64169;47.240;11.312;2023-04-25T02:43:27;5.10;;;2.10;;
75589;SDS011;64169;47.240;11.312;2023-04-25T02:45:53;6.00;;;2.38;;
75589;SDS011;64169;47.240;11.312;2023-04-25T02:48:18;5.13;;;2.00;;
75589;SDS011;64169;47.240;11.312;2023-04-25T02:50:44;6.07;;;2.50;;
75589;SDS011;64169;47.240;11.312;2023-04-25T02:53:10;5.15;;;2.10;;
75589;SDS011;64169;47.240;11.312;2023-04-25T02:55:35;4.68;;;1.80;;
75589;SDS011;64169;47.240;11.312;2023-04-25T02:58:01;6.10;;;2.08;;
75589;SDS011;64169;47.240;11.312;2023-04-25T03:00:26;4.90;;;2.13;;
75589;SDS011;64169;47.240;11.312;2023-04-25T03:02:51;6.78;;;2.60;;
75589;SDS011;64169;47.240;11.312;2023-04-25T03:05:17;5.63;;;2.30;;
75589;SDS011;64169;47.240;11.312;2023-04-25T03:07:43;5.68;;;2.25;;
75589;SDS011;64169;47.240;11.312;2023-04-25T03:10:10;5.57;;;1.92;;
75589;SDS011;64169;47.240;11.312;2023-04-25T03:12:35;6.05;;;2.50;;
75589;SDS011;64169;47.240;11.312;2023-04-25T03:15:01;7.30;;;2.97;;
75589;SDS011;64169;47.240;11.312;2023-04-25T03:17:27;6.38;;;2.95;;
75589;SDS011;64169;47.240;11.312;2023-04-25T03:19:52;5.80;;;2.33;;
75589;SDS011;64169;47.240;11.312;2023-04-25T03:22:18;7.70;;;2.92;;
75589;SDS011;64169;47.240;11.312;2023-04-25T03:24:43;5.70;;;2.28;;
75589;SDS011;64169;47.240;11.312;2023-04-25T03:27:09;6.53;;;2.83;;
75589;SDS011;64169;47.240;11.312;2023-04-25T03:29:35;5.72;;;2.55;;
75589;SDS011;64169;47.240;11.312;2023-04-25T03:32:00;5.95;;;2.22;;
75589;SDS011;64169;47.240;11.312;2023-04-25T03:34:25;5.50;;;2.13;;
75589;SDS011;64169;47.240;11.312;2023-04-25T03:36:51;5.55;;;2.42;;
75589;SDS011;64169;47.240;11.312;2023-04-25T03:39:16;6.32;;;2.55;;
75589;SDS011;64169;47.240;11.312;2023-04-25T03:41:42;6.47;;;1.88;;
75589;SDS011;64169;47.240;11.312;2023-04-25T03:44:07;5.13;;;2.10;;
75589;SDS011;64169;47.240;11.312;2023-04-25T03:46:33;5.78;;;2.28;;
75589;SDS011;64169;47.240;11.312;2023-04-25T03:48:58;6.53;;;2.30;;
75589;SDS011;64169;47.240;11.312;2023-04-25T03:51:24;4.80;;;2.03;;
75589;SDS011;64169;47.240;11.312;2023-04-25T03:53:50;5.60;;;1.75;;
75589;SDS011;64169;47.240;11.312;2023-04-25T03:56:16;5.13;;;1.88;;
75589;SDS011;64169;47.240;11.312;2023-04-25T03:58:41;4.90;;;2.05;;
75589;SDS011;64169;47.240;11.312;2023-04-25T04:01:07;4.53;;;1.83;;
75589;SDS011;64169;47.240;11.312;2023-04-25T04:03:35;5.68;;;2.05;;
75589;SDS011;64169;47.240;11.312;2023-04-25T04:06:04;5.30;;;2.13;;
75589;SDS011;64169;47.240;11.312;2023-04-25T04:08:34;6.80;;;2.25;;
75589;SDS011;64169;47.240;11.312;2023-04-25T04:10:59;5.45;;;2.35;;
75589;SDS011;64169;47.240;11.312;2023-04-25T04:13:25;5.72;;;2.08;;
75589;SDS011;64169;47.240;11.312;2023-04-25T04:15:51;5.95;;;2.53;;
75589;SDS011;64169;47.240;11.312;2023-04-25T04:18:17;5.93;;;2.05;;
75589;SDS011;64169;47.240;11.312;2023-04-25T04:20:42;5.40;;;1.58;;
75589;SDS011;64169;47.240;11.312;2023-04-25T04:23:08;5.55;;;1.92;;
75589;SDS011;64169;47.240;11.312;2023-04-25T04:25:33;5.30;;;1.50;;
75589;SDS011;64169;47.240;11.312;2023-04-25T04:27:59;5.88;;;2.67;;
75589;SDS011;64169;47.240;11.312;2023-04-25T04:30:25;5.03;;;1.67;;
75589;SDS011;64169;47.240;11.312;2023-04-25T04:32:54;4.65;;;1.80;;
75589;SDS011;64169;47.240;11.312;2023-04-25T04:35:20;4.65;;;1.83;;
75589;SDS011;64169;47.240;11.312;2023-04-25T04:37:46;4.22;;;1.70;;
75589;SDS011;64169;47.240;11.312;2023-04-25T04:40:13;7.28;;;2.28;;
75589;SDS011;64169;47.240;11.312;2023-04-25T04:42:40;5.97;;;2.72;;
75589;SDS011;64169;47.240;11.312;2023-04-25T04:45:06;4.15;;;1.63;;
75589;SDS011;64169;47.240;11.312;2023-04-25T04:47:32;5.28;;;1.88;;
75589;SDS011;64169;47.240;11.312;2023-04-25T04:49:59;6.57;;;2.83;;
75589;SDS011;64169;47.240;11.312;2023-04-25T04:52:24;5.97;;;1.80;;
75589;SDS011;64169;47.240;11.312;2023-04-25T04:54:49;4.63;;;1.80;;
75589;SDS011;64169;47.240;11.312;2023-04-25T04:57:15;5.70;;;2.28;;
75589;SDS011;64169;47.240;11.312;2023-04-25T04:59:41;5.93;;;2.53;;
75589;SDS011;64169;47.240;11.312;2023-04-25T05:02:07;5.15;;;2.28;;
75589;SDS011;64169;47.240;11.312;2023-04-25T05:04:32;5.68;;;2.30;;
75589;SDS011;64169;47.240;11.312;2023-04-25T05:06:58;6.25;;;2.42;;
75589;SDS011;64169;47.240;11.312;2023-04-25T05:09:23;6.03;;;2.65;;
75589;SDS011;64169;47.240;11.312;2023-04-25T05:11:51;8.13;;;2.50;;
75589;SDS011;64169;47.240;11.312;2023-04-25T05:14:16;6.72;;;2.00;;
75589;SDS011;64169;47.240;11.312;2023-04-25T05:16:42;6.18;;;2.28;;
75589;SDS011;64169;47.240;11.312;2023-04-25T05:19:08;5.75;;;2.35;;
75589;SDS011;64169;47.240;11.312;2023-04-25T05:21:33;5.60;;;2.47;;
75589;SDS011;64169;47.240;11.312;2023-04-25T05:23:59;6.43;;;2.33;;
75589;SDS011;64169;47.240;11.312;2023-04-25T05:26:25;6.18;;;2.30;;
75589;SDS011;64169;47.240;11.312;2023-04-25T05:28:51;6.18;;;2.55;;
75589;SDS011;64169;47.240;11.312;2023-04-25T05:31:16;4.75;;;1.90;;
75589;SDS011;64169;47.240;11.312;2023-04-25T05:33:41;4.95;;;1.90;;
75589;SDS011;64169;47.240;11.312;2023-04-25T05:36:07;5.15;;;1.92;;
75589;SDS011;64169;47.240;11.312;2023-04-25T05:38:33;5.25;;;1.95;;
75589;SDS011;64169;47.240;11.312;2023-04-25T05:40:58;5.05;;;1.75;;
75589;SDS011;64169;47.240;11.312;2023-04-25T05:43:23;4.97;;;1.73;;
75589;SDS011;64169;47.240;11.312;2023-04-25T05:45:49;4.78;;;1.60;;
75589;SDS011;64169;47.240;11.312;2023-04-25T05:48:15;4.80;;;1.80;;
75589;SDS011;64169;47.240;11.312;2023-04-25T05:50:40;4.72;;;2.13;;
75589;SDS011;64169;47.240;11.312;2023-04-25T05:53:06;4.88;;;1.73;;
75589;SDS011;64169;47.240;11.312;2023-04-25T05:55:31;4.97;;;1.77;;
75589;SDS011;64169;47.240;11.312;2023-04-25T05:57:57;5.55;;;1.85;;
75589;SDS011;64169;47.240;11.312;2023-04-25T06:00:22;5.45;;;1.77;;
75589;SDS011;64169;47.240;11.312;2023-04-25T06:02:48;4.75;;;1.83;;
75589;SDS011;64169;47.240;11.312;2023-04-25T06:05:14;5.15;;;1.95;;
75589;SDS011;64169;47.240;11.312;2023-04-25T06:07:39;5.28;;;2.05;;
75589;SDS011;64169;47.240;11.312;2023-04-25T06:10:05;5.20;;;2.30;;
75589;SDS011;64169;47.240;11.312;2023-04-25T06:12:32;5.43;;;1.77;;
75589;SDS011;64169;47.240;11.312;2023-04-25T06:14:58;4.55;;;1.63;;
75589;SDS011;64169;47.240;11.312;2023-04-25T06:17:23;5.30;;;1.92;;
75589;SDS011;64169;47.240;11.312;2023-04-25T06:19:49;5.22;;;1.80;;
75589;SDS011;64169;47.240;11.312;2023-04-25T06:22:14;3.97;;;1.52;;
75589;SDS011;64169;47.240;11.312;2023-04-25T06:24:40;5.07;;;1.75;;
75589;SDS011;64169;47.240;11.312;2023-04-25T06:27:05;5.35;;;2.15;;
75589;SDS011;64169;47.240;11.312;2023-04-25T06:29:31;3.78;;;1.55;;
75589;SDS011;64169;47.240;11.312;2023-04-25T06:31:56;5.18;;;1.67;;
75589;SDS011;64169;47.240;11.312;2023-04-25T06:34:22;4.68;;;1.70;;
75589;SDS011;64169;47.240;11.312;2023-04-25T06:36:47;5.40;;;1.95;;
75589;SDS011;64169;47.240;11.312;2023-04-25T06:39:13;5.28;;;1.50;;
75589;SDS011;64169;47.240;11.312;2023-04-25T06:41:38;4.82;;;1.85;;
75589;SDS011;64169;47.240;11.312;2023-04-25T06:44:03;4.85;;;1.88;;
75589;SDS011;64169;47.240;11.312;2023-04-25T06:46:29;5.63;;;2.08;;
75589;SDS011;64169;47.240;11.312;2023-04-25T06:48:54;5.05;;;1.67;;
75589;SDS011;64169;47.240;11.312;2023-04-25T06:51:20;5.90;;;2.03;;
75589;SDS011;64169;47.240;11.312;2023-04-25T06:53:45;5.03;;;2.00;;
75589;SDS011;64169;47.240;11.312;2023-04-25T06:56:11;5.18;;;2.00;;
75589;SDS011;64169;47.240;11.312;2023-04-25T06:58:36;7.07;;;2.83;;
75589;SDS011;64169;47.240;11.312;2023-04-25T07:01:02;4.50;;;1.70;;
75589;SDS011;64169;47.240;11.312;2023-04-25T07:03:27;4.57;;;1.73;;
75589;SDS011;64169;47.240;11.312;2023-04-25T07:05:53;6.43;;;1.50;;
75589;SDS011;64169;47.240;11.312;2023-04-25T07:08:18;5.30;;;1.85;;
75589;SDS011;64169;47.240;11.312;2023-04-25T07:10:44;4.40;;;1.50;;
75589;SDS011;64169;47.240;11.312;2023-04-25T07:13:11;4.10;;;1.52;;
75589;SDS011;64169;47.240;11.312;2023-04-25T07:15:36;5.93;;;1.67;;
75589;SDS011;64169;47.240;11.312;2023-04-25T07:18:02;5.82;;;1.67;;
75589;SDS011;64169;47.240;11.312;2023-04-25T07:20:27;6.00;;;2.25;;
75589;SDS011;64169;47.240;11.312;2023-04-25T07:22:53;6.05;;;1.73;;
75589;SDS011;64169;47.240;11.312;2023-04-25T07:25:19;4.28;;;1.30;;
75589;SDS011;64169;47.240;11.312;2023-04-25T07:27:44;4.05;;;1.40;;
75589;SDS011;64169;47.240;11.312;2023-04-25T07:30:10;3.67;;;1.35;;
75589;SDS011;64169;47.240;11.312;2023-04-25T07:32:35;4.43;;;1.40;;
75589;SDS011;64169;47.240;11.312;2023-04-25T07:35:01;4.22;;;1.40;;
75589;SDS011;64169;47.240;11.312;2023-04-25T07:37:28;4.15;;;1.50;;
75589;SDS011;64169;47.240;11.312;2023-04-25T07:39:53;6.13;;;1.50;;
75589;SDS011;64169;47.240;11.312;2023-04-25T07:42:19;4.85;;;1.52;;
75589;SDS011;64169;47.240;11.312;2023-04-25T07:44:44;4.47;;;1.63;;
75589;SDS011;64169;47.240;11.312;2023-04-25T07:47:10;3.67;;;1.10;;
75589;SDS011;64169;47.240;11.312;2023-04-25T07:49:36;4.00;;;1.45;;
75589;SDS011;64169;47.240;11.312;2023-04-25T07:52:02;4.43;;;1.50;;
75589;SDS011;64169;47.240;11.312;2023-04-25T07:54:28;5.03;;;1.30;;
75589;SDS011;64169;47.240;11.312;2023-04-25T07:56:54;3.10;;;1.08;;
75589;SDS011;64169;47.240;11.312;2023-04-25T07:59:20;4.22;;;1.50;;
75589;SDS011;64169;47.240;11.312;2023-04-25T08:01:46;4.13;;;1.33;;
75589;SDS011;64169;47.240;11.312;2023-04-25T08:04:12;4.55;;;1.23;;
75589;SDS011;64169;47.240;11.312;2023-04-25T08:06:37;3.85;;;1.45;;
75589;SDS011;64169;47.240;11.312;2023-04-25T08:09:03;3.92;;;1.30;;
75589;SDS011;64169;47.240;11.312;2023-04-25T08:11:29;5.10;;;1.30;;
75589;SDS011;64169;47.240;11.312;2023-04-25T08:13:54;4.82;;;1.75;;
75589;SDS011;64169;47.240;11.312;2023-04-25T08:16:20;5.25;;;1.80;;
75589;SDS011;64169;47.240;11.312;2023-04-25T08:18:45;4.90;;;1.90;;
75589;SDS011;64169;47.240;11.312;2023-04-25T08:21:11;5.75;;;1.70;;
75589;SDS011;64169;47.240;11.312;2023-04-25T08:23:37;5.90;;;2.05;;
75589;SDS011;64169;47.240;11.312;2023-04-25T08:26:03;5.60;;;2.28;;
75589;SDS011;64169;47.240;11.312;2023-04-25T08:28:29;5.53;;;2.13;;
75589;SDS011;64169;47.240;11.312;2023-04-25T08:30:55;7.53;;;3.53;;
75589;SDS011;64169;47.240;11.312;2023-04-25T08:33:20;4.90;;;1.73;;
75589;SDS011;64169;47.240;11.312;2023-04-25T08:35:46;5.10;;;1.73;;
75589;SDS011;64169;47.240;11.312;2023-04-25T08:38:11;3.30;;;1.35;;
75589;SDS011;64169;47.240;11.312;2023-04-25T08:40:38;4.15;;;1.77;;
75589;SDS011;64169;47.240;11.312;2023-04-25T08:43:05;5.07;;;1.80;;
75589;SDS011;64169;47.240;11.312;2023-04-25T08:45:36;4.15;;;1.50;;
75589;SDS011;64169;47.240;11.312;2023-04-25T08:48:04;4.38;;;1.65;;
75589;SDS011;64169;47.240;11.312;2023-04-25T08:50:30;4.30;;;1.80;;
75589;SDS011;64169;47.240;11.312;2023-04-25T08:52:56;3.72;;;1.50;;
75589;SDS011;64169;47.240;11.312;2023-04-25T08:55:26;11.68;;;5.38;;
75589;SDS011;64169;47.240;11.312;2023-04-25T08:57:52;4.55;;;1.80;;
75589;SDS011;64169;47.240;11.312;2023-04-25T09:00:20;5.30;;;1.80;;
75589;SDS011;64169;47.240;11.312;2023-04-25T09:02:45;4.10;;;1.48;;
75589;SDS011;64169;47.240;11.312;2023-04-25T09:05:12;3.35;;;1.17;;
75589;SDS011;64169;47.240;11.312;2023-04-25T09:07:38;4.00;;;1.50;;
75589;SDS011;64169;47.240;11.312;2023-04-25T09:10:04;5.00;;;1.33;;
75589;SDS011;64169;47.240;11.312;2023-04-25T09:12:29;3.90;;;1.35;;
75589;SDS011;64169;47.240;11.312;2023-04-25T09:15:05;4.30;;;1.45;;
75589;SDS011;64169;47.240;11.312;2023-04-25T09:17:32;4.43;;;1.35;;
75589;SDS011;64169;47.240;11.312;2023-04-25T09:20:11;3.63;;;1.20;;
75589;SDS011;64169;47.240;11.312;2023-04-25T09:22:38;3.35;;;1.08;;
75589;SDS011;64169;47.240;11.312;2023-04-25T09:25:07;3.85;;;1.30;;
75589;SDS011;64169;47.240;11.312;2023-04-25T09:27:34;4.40;;;1.35;;
75589;SDS011;64169;47.240;11.312;2023-04-25T09:30:00;4.47;;;1.40;;
75589;SDS011;64169;47.240;11.312;2023-04-25T09:32:26;3.72;;;0.98;;
75589;SDS011;64169;47.240;11.312;2023-04-25T09:34:55;3.70;;;1.13;;
75589;SDS011;64169;47.240;11.312;2023-04-25T09:37:28;4.00;;;1.20;;
75589;SDS011;64169;47.240;11.312;2023-04-25T09:39:56;3.40;;;1.10;;
75589;SDS011;64169;47.240;11.312;2023-04-25T09:42:24;4.35;;;1.13;;
75589;SDS011;64169;47.240;11.312;2023-04-25T09:44:53;2.67;;;0.90;;
75589;SDS011;64169;47.240;11.312;2023-04-25T09:47:20;5.45;;;1.98;;
75589;SDS011;64169;47.240;11.312;2023-04-25T09:49:49;7.20;;;3.05;;
75589;SDS011;64169;47.240;11.312;2023-04-25T09:52:24;3.35;;;0.98;;
75589;SDS011;64169;47.240;11.312;2023-04-25T09:54:50;4.57;;;1.30;;
75589;SDS011;64169;47.240;11.312;2023-04-25T09:57:20;3.10;;;1.00;;
75589;SDS011;64169;47.240;11.312;2023-04-25T09:59:50;3.53;;;1.17;;
75589;SDS011;64169;47.240;11.312;2023-04-25T10:02:17;3.45;;;1.08;;
75589;SDS011;64169;47.240;11.312;2023-04-25T10:04:47;4.07;;;1.17;;
75589;SDS011;64169;47.240;11.312;2023-04-25T10:07:13;3.92;;;0.93;;
75589;SDS011;64169;47.240;11.312;2023-04-25T10:09:39;4.78;;;1.27;;
75589;SDS011;64169;47.240;11.312;2023-04-25T10:12:05;3.20;;;1.10;;
75589;SDS011;64169;47.240;11.312;2023-04-25T10:14:32;4.47;;;1.38;;
75589;SDS011;64169;47.240;11.312;2023-04-25T10:16:58;2.80;;;1.23;;
75589;SDS011;64169;47.240;11.312;2023-04-25T10:19:25;3.03;;;1.30;;
75589;SDS011;64169;47.240;11.312;2023-04-25T10:22:03;5.88;;;1.50;;
75589;SDS011;64169;47.240;11.312;2023-04-25T10:24:31;3.55;;;1.25;;
75589;SDS011;64169;47.240;11.312;2023-04-25T10:26:57;4.78;;;1.83;;
75589;SDS011;64169;47.240;11.312;2023-04-25T10:29:24;4.25;;;1.38;;
75589;SDS011;64169;47.240;11.312;2023-04-25T10:31:50;3.05;;;1.25;;
75589;SDS011;64169;47.240;11.312;2023-04-25T10:34:18;3.95;;;1.25;;
75589;SDS011;64169;47.240;11.312;2023-04-25T10:36:51;4.18;;;1.40;;
75589;SDS011;64169;47.240;11.312;2023-04-25T10:39:24;3.15;;;1.02;;
75589;SDS011;64169;47.240;11.312;2023-04-25T10:41:55;3.83;;;1.20;;
75589;SDS011;64169;47.240;11.312;2023-04-25T10:44:22;3.63;;;1.23;;
75589;SDS011;64169;47.240;11.312;2023-04-25T10:46:47;2.13;;;0.75;;
75589;SDS011;64169;47.240;11.312;2023-04-25T10:49:29;4.13;;;1.10;;
75589;SDS011;64169;47.240;11.312;2023-04-25T10:52:12;2.83;;;1.20;;
75589;SDS011;64169;47.240;11.312;2023-04-25T10:54:48;3.83;;;1.10;;
75589;SDS011;64169;47.240;11.312;2023-04-25T11:00:11;4.68;;;1.40;;
75589;SDS011;64169;47.240;11.312;2023-04-25T11:02:58;4.57;;;1.63;;
75589;SDS011;64169;47.240;11.312;2023-04-25T11:05:28;4.10;;;1.90;;
75589;SDS011;64169;47.240;11.312;2023-04-25T11:07:56;5.47;;;1.70;;
75589;SDS011;64169;47.240;11.312;2023-04-25T11:10:26;4.90;;;1.77;;
75589;SDS011;64169;47.240;11.312;2023-04-25T11:12:52;4.55;;;1.65;;
75589;SDS011;64169;47.240;11.312;2023-04-25T11:15:18;4.95;;;1.95;;
75589;SDS011;64169;47.240;11.312;2023-04-25T11:17:43;6.03;;;1.60;;
75589;SDS011;64169;47.240;11.312;2023-04-25T11:20:11;5.60;;;1.90;;
75589;SDS011;64169;47.240;11.312;2023-04-25T11:22:38;4.38;;;1.75;;
75589;SDS011;64169;47.240;11.312;2023-04-25T11:25:08;3.90;;;1.30;;
75589;SDS011;64169;47.240;11.312;2023-04-25T11:27:37;3.67;;;1.33;;
75589;SDS011;64169;47.240;11.312;2023-04-25T11:30:13;4.88;;;1.40;;
75589;SDS011;64169;47.240;11.312;2023-04-25T11:32:40;4.82;;;1.60;;
75589;SDS011;64169;47.240;11.312;2023-04-25T11:35:07;4.20;;;1.33;;
75589;SDS011;64169;47.240;11.312;2023-04-25T11:37:32;3.35;;;1.20;;
75589;SDS011;64169;47.240;11.312;2023-04-25T11:39:59;4.40;;;1.40;;
75589;SDS011;64169;47.240;11.312;2023-04-25T11:42:25;3.38;;;1.10;;
75589;SDS011;64169;47.240;11.312;2023-04-25T11:44:51;4.85;;;1.25;;
75589;SDS011;64169;47.240;11.312;2023-04-25T11:47:16;3.08;;;1.10;;
75589;SDS011;64169;47.240;11.312;2023-04-25T11:49:42;3.50;;;1.00;;
75589;SDS011;64169;47.240;11.312;2023-04-25T11:52:07;3.42;;;0.80;;
75589;SDS011;64169;47.240;11.312;2023-04-25T11:54:35;2.35;;;0.85;;
75589;SDS011;64169;47.240;11.312;2023-04-25T11:57:01;2.30;;;0.70;;
75589;SDS011;64169;47.240;11.312;2023-04-25T11:59:26;2.22;;;0.68;;
75589;SDS011;64169;47.240;11.312;2023-04-25T12:01:52;1.98;;;0.65;;
75589;SDS011;64169;47.240;11.312;2023-04-25T12:06:46;1.70;;;0.63;;
75589;SDS011;64169;47.240;11.312;2023-04-25T12:09:13;1.63;;;0.68;;
75589;SDS011;64169;47.240;11.312;2023-04-25T12:12:01;2.13;;;0.70;;
75589;SDS011;64169;47.240;11.312;2023-04-25T12:14:34;2.30;;;0.73;;
75589;SDS011;64169;47.240;11.312;2023-04-25T12:17:01;2.08;;;0.70;;
75589;SDS011;64169;47.240;11.312;2023-04-25T12:19:33;1.85;;;0.60;;
75589;SDS011;64169;47.240;11.312;2023-04-25T12:22:00;0.95;;;0.70;;
75589;SDS011;64169;47.240;11.312;2023-04-25T12:24:26;1.33;;;0.73;;
75589;SDS011;64169;47.240;11.312;2023-04-25T12:26:59;1.95;;;0.70;;
75589;SDS011;64169;47.240;11.312;2023-04-25T12:29:27;2.40;;;0.70;;
75589;SDS011;64169;47.240;11.312;2023-04-25T12:31:56;1.55;;;0.57;;
75589;SDS011;64169;47.240;11.312;2023-04-25T12:34:22;3.75;;;0.60;;
75589;SDS011;64169;47.240;11.312;2023-04-25T12:36:49;2.75;;;0.80;;
75589;SDS011;64169;47.240;11.312;2023-04-25T12:39:19;1.33;;;0.70;;
75589;SDS011;64169;47.240;11.312;2023-04-25T12:41:46;3.17;;;0.70;;
75589;SDS011;64169;47.240;11.312;2023-04-25T12:44:12;1.23;;;0.68;;
75589;SDS011;64169;47.240;11.312;2023-04-25T12:46:38;0.95;;;0.40;;
75589;SDS011;64169;47.240;11.312;2023-04-25T12:49:04;1.20;;;0.52;;
75589;SDS011;64169;47.240;11.312;2023-04-25T12:51:31;1.63;;;0.70;;
75589;SDS011;64169;47.240;11.312;2023-04-25T12:53:58;1.23;;;0.60;;
75589;SDS011;64169;47.240;11.312;2023-04-25T12:56:27;1.13;;;0.47;;
75589;SDS011;64169;47.240;11.312;2023-04-25T12:58:53;1.17;;;0.60;;
75589;SDS011;64169;47.240;11.312;2023-04-25T13:01:19;1.13;;;0.60;;
75589;SDS011;64169;47.240;11.312;2023-04-25T13:03:45;2.08;;;0.63;;
75589;SDS011;64169;47.240;11.312;2023-04-25T13:06:11;1.65;;;0.55;;
75589;SDS011;64169;47.240;11.312;2023-04-25T13:08:37;2.22;;;0.75;;
75589;SDS011;64169;47.240;11.312;2023-04-25T13:11:04;1.83;;;0.60;;
75589;SDS011;64169;47.240;11.312;2023-04-25T13:13:31;1.23;;;0.57;;
75589;SDS011;64169;47.240;11.312;2023-04-25T13:15:57;3.10;;;0.60;;
75589;SDS011;64169;47.240;11.312;2023-04-25T13:18:23;2.65;;;0.70;;
75589;SDS011;64169;47.240;11.312;2023-04-25T13:20:54;1.60;;;0.50;;
75589;SDS011;64169;47.240;11.312;2023-04-25T13:23:20;0.47;;;0.32;;
75589;SDS011;64169;47.240;11.312;2023-04-25T13:25:45;1.25;;;0.70;;
75589;SDS011;64169;47.240;11.312;2023-04-25T13:28:11;0.98;;;0.40;;
75589;SDS011;64169;47.240;11.312;2023-04-25T13:30:37;2.65;;;0.45;;
75589;SDS011;64169;47.240;11.312;2023-04-25T13:33:02;1.08;;;0.52;;
75589;SDS011;64169;47.240;11.312;2023-04-25T13:35:29;1.83;;;0.60;;
75589;SDS011;64169;47.240;11.312;2023-04-25T13:37:55;1.02;;;0.52;;
75589;SDS011;64169;47.240;11.312;2023-04-25T13:40:20;0.47;;;0.30;;
75589;SDS011;64169;47.240;11.312;2023-04-25T13:42:46;1.23;;;0.50;;
75589;SDS011;64169;47.240;11.312;2023-04-25T13:45:11;2.40;;;0.60;;
75589;SDS011;64169;47.240;11.312;2023-04-25T13:47:37;0.93;;;0.40;;
75589;SDS011;64169;47.240;11.312;2023-04-25T13:50:05;3.22;;;0.60;;
75589;SDS011;64169;47.240;11.312;2023-04-25T13:52:32;1.38;;;0.35;;
75589;SDS011;64169;47.240;11.312;2023-04-25T13:54:57;0.88;;;0.35;;
75589;SDS011;64169;47.240;11.312;2023-04-25T13:57:23;0.75;;;0.50;;
75589;SDS011;64169;47.240;11.312;2023-04-25T13:59:49;1.27;;;0.50;;
75589;SDS011;64169;47.240;11.312;2023-04-25T14:02:15;1.90;;;0.50;;
75589;SDS011;64169;47.240;11.312;2023-04-25T14:04:41;1.23;;;0.40;;
75589;SDS011;64169;47.240;11.312;2023-04-25T14:07:06;0.65;;;0.40;;
75589;SDS011;64169;47.240;11.312;2023-04-25T14:09:32;1.92;;;0.50;;
75589;SDS011;64169;47.240;11.312;2023-04-25T14:11:57;1.85;;;0.50;;
75589;SDS011;64169;47.240;11.312;2023-04-25T14:14:23;1.48;;;0.50;;
75589;SDS011;64169;47.240;11.312;2023-04-25T14:16:49;0.40;;;0.30;;
75589;SDS011;64169;47.240;11.312;2023-04-25T14:19:15;0.98;;;0.50;;
75589;SDS011;64169;47.240;11.312;2023-04-25T14:21:41;0.75;;;0.50;;
75589;SDS011;64169;47.240;11.312;2023-04-25T14:24:10;2.20;;;0.70;;
75589;SDS011;64169;47.240;11.312;2023-04-25T14:26:36;1.05;;;0.35;;
75589;SDS011;64169;47.240;11.312;2023-04-25T14:29:03;0.70;;;0.43;;
75589;SDS011;64169;47.240;11.312;2023-04-25T14:31:32;2.00;;;0.63;;
75589;SDS011;64169;47.240;11.312;2023-04-25T14:33:58;0.55;;;0.40;;